sensor_id;sensor_type;location;lat;lon;timestamp;pressure;altitude;pressure_sealevel;temperature;humidity
39295;BME280;52361;52.100;5.248;2023-02-26T00:01:26;101847.0;;;1.86;100.0
39295;BME280;52361;52.100;5.248;2023-02-26T00:04:40;101853.0;;;1.94;100.0
39295;BME280;52361;52.100;5.248;2023-02-26T00:06:17;101853.0;;;1.95;100.0
39295;BME280;52361;52.100;5.248;2023-02-26T00:07:54;101848.0;;;1.93;100.0
39295;BME280;52361;52.100;5.248;2023-02-26T00:11:08;101846.0;;;1.92;100.0
39295;BME280;52361;52.100;5.248;2023-02-26T00:12:48;101848.0;;;1.96;100.0
39295;BME280;52361;52.100;5.248;2023-02-26T00:14:25;101855.0;;;2.0;100.0
39295;BME280;52361;52.100;5.248;2023-02-26T00:16:09;101856.0;;;2.05;100.0
39295;BME280;52361;52.100;5.248;2023-02-26T00:19:34;101862.0;;;2.15;100.0
39295;BME280;52361;52.100;5.248;2023-02-26T00:21:15;101863.0;;;2.19;100.0
39295;BME280;52361;52.100;5.248;2023-02-26T00:24:29;101871.0;;;2.25;100.0
39295;BME280;52361;52.100;5.248;2023-02-26T00:27:42;101873.0;;;2.44;100.0
39295;BME280;52361;52.100;5.248;2023-02-26T00:29:19;101875.0;;;2.52;100.0
39295;BME280;52361;52.100;5.248;2023-02-26T00:30:56;101881.0;;;2.57;100.0
39295;BME280;52361;52.100;5.248;2023-02-26T00:34:11;101893.0;;;2.68;100.0
39295;BME280;52361;52.100;5.248;2023-02-26T00:35:52;101896.0;;;2.54;98.8
39295;BME280;52361;52.100;5.248;2023-02-26T00:37:54;101895.0;;;2.71;97.2
39295;BME280;52361;52.100;5.248;2023-02-26T00:39:40;101905.0;;;2.77;96.24
39295;BME280;52361;52.100;5.248;2023-02-26T00:41:22;101910.0;;;2.78;94.4
39295;BME280;52361;52.100;5.248;2023-02-26T00:44:36;101914.0;;;2.69;92.75
39295;BME280;52361;52.100;5.248;2023-02-26T00:46:20;101919.0;;;2.79;92.33
39295;BME280;52361;52.100;5.248;2023-02-26T00:48:15;101924.0;;;2.84;90.45
39295;BME280;52361;52.100;5.248;2023-02-26T00:50:16;101928.0;;;2.91;88.96
39295;BME280;52361;52.100;5.248;2023-02-26T00:51:55;101927.0;;;3.06;87.87
39295;BME280;52361;52.100;5.248;2023-02-26T00:53:39;101926.0;;;3.1;87.02
39295;BME280;52361;52.100;5.248;2023-02-26T00:56:58;101926.0;;;3.22;86.13
39295;BME280;52361;52.100;5.248;2023-02-26T00:58:34;101926.0;;;3.07;85.51
39295;BME280;52361;52.100;5.248;2023-02-26T01:00:11;101920.0;;;3.11;85.17
39295;BME280;52361;52.100;5.248;2023-02-26T01:03:27;101928.0;;;3.17;84.51
39295;BME280;52361;52.100;5.248;2023-02-26T01:05:07;101923.0;;;3.13;83.98
39295;BME280;52361;52.100;5.248;2023-02-26T01:06:47;101931.0;;;3.14;84.01
39295;BME280;52361;52.100;5.248;2023-02-26T01:08:31;101934.0;;;3.43;82.52
39295;BME280;52361;52.100;5.248;2023-02-26T01:11:48;101930.0;;;3.3;82.22
39295;BME280;52361;52.100;5.248;2023-02-26T01:13:25;101934.0;;;3.46;81.95
39295;BME280;52361;52.100;5.248;2023-02-26T01:15:04;101928.0;;;3.32;81.87
39295;BME280;52361;52.100;5.248;2023-02-26T01:16:47;101930.0;;;3.5;81.62
39295;BME280;52361;52.100;5.248;2023-02-26T01:20:16;101933.0;;;3.41;81.61
39295;BME280;52361;52.100;5.248;2023-02-26T01:22:01;101931.0;;;3.51;81.22
39295;BME280;52361;52.100;5.248;2023-02-26T01:23:40;101936.0;;;3.42;80.94
39295;BME280;52361;52.100;5.248;2023-02-26T01:25:24;101934.0;;;3.25;80.97
39295;BME280;52361;52.100;5.248;2023-02-26T01:27:02;101939.0;;;3.26;81.73
39295;BME280;52361;52.100;5.248;2023-02-26T01:30:16;101947.0;;;3.3;81.22
39295;BME280;52361;52.100;5.248;2023-02-26T01:31:56;101950.0;;;3.29;80.86
39295;BME280;52361;52.100;5.248;2023-02-26T01:33:40;101952.0;;;3.25;79.94
39295;BME280;52361;52.100;5.248;2023-02-26T01:37:22;101955.0;;;3.29;80.16
39295;BME280;52361;52.100;5.248;2023-02-26T01:39:11;101955.0;;;3.31;80.0
39295;BME280;52361;52.100;5.248;2023-02-26T01:41:29;101956.0;;;3.29;79.55
39295;BME280;52361;52.100;5.248;2023-02-26T01:43:11;101960.0;;;3.3;79.24
39295;BME280;52361;52.100;5.248;2023-02-26T01:44:55;101961.0;;;3.26;79.53
39295;BME280;52361;52.100;5.248;2023-02-26T01:48:35;101963.0;;;3.2;79.75
39295;BME280;52361;52.100;5.248;2023-02-26T01:50:17;101973.0;;;3.08;79.7
39295;BME280;52361;52.100;5.248;2023-02-26T01:53:33;101973.0;;;2.99;80.36
39295;BME280;52361;52.100;5.248;2023-02-26T01:55:10;101974.0;;;3.08;80.47
39295;BME280;52361;52.100;5.248;2023-02-26T01:56:50;101973.0;;;3.11;79.78
39295;BME280;52361;52.100;5.248;2023-02-26T01:58:32;101973.0;;;2.9;80.7
39295;BME280;52361;52.100;5.248;2023-02-26T02:01:47;101975.0;;;2.97;81.12
39295;BME280;52361;52.100;5.248;2023-02-26T02:05:10;101974.0;;;2.74;81.55
39295;BME280;52361;52.100;5.248;2023-02-26T02:06:50;101975.0;;;2.73;81.08
39295;BME280;52361;52.100;5.248;2023-02-26T02:10:09;101973.0;;;2.78;80.94
39295;BME280;52361;52.100;5.248;2023-02-26T02:12:00;101980.0;;;2.85;80.08
39295;BME280;52361;52.100;5.248;2023-02-26T02:13:55;101977.0;;;2.75;80.37
39295;BME280;52361;52.100;5.248;2023-02-26T02:15:39;101983.0;;;2.89;79.55
39295;BME280;52361;52.100;5.248;2023-02-26T02:17:27;101987.0;;;2.97;79.22
39295;BME280;52361;52.100;5.248;2023-02-26T02:21:36;101990.0;;;2.99;78.33
39295;BME280;52361;52.100;5.248;2023-02-26T02:23:32;101986.0;;;2.86;78.34
39295;BME280;52361;52.100;5.248;2023-02-26T02:27:16;101992.0;;;2.8;78.36
39295;BME280;52361;52.100;5.248;2023-02-26T02:29:13;101991.0;;;2.77;77.95
39295;BME280;52361;52.100;5.248;2023-02-26T02:32:46;101995.0;;;2.76;77.8
39295;BME280;52361;52.100;5.248;2023-02-26T02:34:28;101999.0;;;2.77;77.11
39295;BME280;52361;52.100;5.248;2023-02-26T02:36:14;102000.0;;;2.66;76.91
39295;BME280;52361;52.100;5.248;2023-02-26T02:39:42;101997.0;;;2.64;77.31
39295;BME280;52361;52.100;5.248;2023-02-26T02:41:24;102002.0;;;2.54;77.27
39295;BME280;52361;52.100;5.248;2023-02-26T02:43:13;102005.0;;;2.63;77.27
39295;BME280;52361;52.100;5.248;2023-02-26T02:44:53;102007.0;;;2.6;76.39
39295;BME280;52361;52.100;5.248;2023-02-26T02:46:36;102012.0;;;2.57;76.52
39295;BME280;52361;52.100;5.248;2023-02-26T02:50:01;102014.0;;;2.48;76.59
39295;BME280;52361;52.100;5.248;2023-02-26T02:51:46;102017.0;;;2.34;76.98
39295;BME280;52361;52.100;5.248;2023-02-26T02:53:31;102017.0;;;2.44;76.61
39295;BME280;52361;52.100;5.248;2023-02-26T02:55:13;102015.0;;;2.31;76.78
39295;BME280;52361;52.100;5.248;2023-02-26T02:58:37;102019.0;;;2.33;76.41
39295;BME280;52361;52.100;5.248;2023-02-26T03:00:17;102024.0;;;2.48;76.16
39295;BME280;52361;52.100;5.248;2023-02-26T03:02:01;102026.0;;;2.46;75.49
39295;BME280;52361;52.100;5.248;2023-02-26T03:03:47;102030.0;;;2.44;76.09
39295;BME280;52361;52.100;5.248;2023-02-26T03:05:27;102030.0;;;2.5;75.16
39295;BME280;52361;52.100;5.248;2023-02-26T03:08:41;102025.0;;;2.44;75.05
39295;BME280;52361;52.100;5.248;2023-02-26T03:10:19;102030.0;;;2.41;74.72
39295;BME280;52361;52.100;5.248;2023-02-26T03:11:56;102028.0;;;2.36;75.06
39295;BME280;52361;52.100;5.248;2023-02-26T03:15:10;102038.0;;;2.44;74.62
39295;BME280;52361;52.100;5.248;2023-02-26T03:17:01;102038.0;;;2.52;74.13
39295;BME280;52361;52.100;5.248;2023-02-26T03:18:59;102043.0;;;2.5;74.41
39295;BME280;52361;52.100;5.248;2023-02-26T03:22:34;102039.0;;;2.36;74.69
39295;BME280;52361;52.100;5.248;2023-02-26T03:24:24;102047.0;;;2.42;74.17
39295;BME280;52361;52.100;5.248;2023-02-26T03:27:54;102047.0;;;2.4;73.74
39295;BME280;52361;52.100;5.248;2023-02-26T03:29:46;102046.0;;;2.46;73.55
39295;BME280;52361;52.100;5.248;2023-02-26T03:31:30;102046.0;;;2.37;73.02
39295;BME280;52361;52.100;5.248;2023-02-26T03:33:12;102052.0;;;2.29;73.7
39295;BME280;52361;52.100;5.248;2023-02-26T03:34:55;102057.0;;;2.33;73.7
39295;BME280;52361;52.100;5.248;2023-02-26T03:38:23;102064.0;;;2.29;73.66
39295;BME280;52361;52.100;5.248;2023-02-26T03:40:15;102056.0;;;2.32;73.3
39295;BME280;52361;52.100;5.248;2023-02-26T03:41:59;102060.0;;;2.33;72.88
39295;BME280;52361;52.100;5.248;2023-02-26T03:43:44;102058.0;;;2.42;72.16
39295;BME280;52361;52.100;5.248;2023-02-26T03:45:24;102064.0;;;2.09;72.47
39295;BME280;52361;52.100;5.248;2023-02-26T03:48:48;102066.0;;;2.08;73.03
39295;BME280;52361;52.100;5.248;2023-02-26T03:50:30;102071.0;;;2.19;72.14
39295;BME280;52361;52.100;5.248;2023-02-26T03:52:08;102077.0;;;1.99;73.08
39295;BME280;52361;52.100;5.248;2023-02-26T03:53:50;102075.0;;;2.35;72.22
39295;BME280;52361;52.100;5.248;2023-02-26T03:57:11;102075.0;;;2.31;71.58
39295;BME280;52361;52.100;5.248;2023-02-26T03:58:47;102080.0;;;2.09;72.19
39295;BME280;52361;52.100;5.248;2023-02-26T04:00:26;102078.0;;;2.11;72.11
39295;BME280;52361;52.100;5.248;2023-02-26T04:02:04;102084.0;;;2.16;71.66
39295;BME280;52361;52.100;5.248;2023-02-26T04:05:31;102091.0;;;2.05;71.69
39295;BME280;52361;52.100;5.248;2023-02-26T04:07:12;102089.0;;;2.23;71.33
39295;BME280;52361;52.100;5.248;2023-02-26T04:08:49;102094.0;;;2.33;70.88
39295;BME280;52361;52.100;5.248;2023-02-26T04:10:31;102093.0;;;2.21;71.14
39295;BME280;52361;52.100;5.248;2023-02-26T04:13:48;102094.0;;;2.19;71.5
39295;BME280;52361;52.100;5.248;2023-02-26T04:15:25;102098.0;;;2.27;71.25
39295;BME280;52361;52.100;5.248;2023-02-26T04:17:01;102099.0;;;2.04;71.72
39295;BME280;52361;52.100;5.248;2023-02-26T04:18:37;102106.0;;;2.11;71.97
39295;BME280;52361;52.100;5.248;2023-02-26T04:21:51;102110.0;;;2.15;71.98
39295;BME280;52361;52.100;5.248;2023-02-26T04:23:27;102109.0;;;2.07;71.69
39295;BME280;52361;52.100;5.248;2023-02-26T04:25:05;102118.0;;;2.19;71.5
39295;BME280;52361;52.100;5.248;2023-02-26T04:28:18;102115.0;;;2.21;71.72
39295;BME280;52361;52.100;5.248;2023-02-26T04:29:54;102122.0;;;2.21;72.69
39295;BME280;52361;52.100;5.248;2023-02-26T04:31:30;102121.0;;;2.04;73.06
39295;BME280;52361;52.100;5.248;2023-02-26T04:34:42;102128.0;;;2.08;72.45
39295;BME280;52361;52.100;5.248;2023-02-26T04:36:20;102126.0;;;1.87;73.19
39295;BME280;52361;52.100;5.248;2023-02-26T04:37:56;102130.0;;;1.92;72.87
39295;BME280;52361;52.100;5.248;2023-02-26T04:39:33;102134.0;;;2.0;72.69
39295;BME280;52361;52.100;5.248;2023-02-26T04:42:45;102130.0;;;2.02;72.28
39295;BME280;52361;52.100;5.248;2023-02-26T04:44:21;102135.0;;;1.99;72.12
39295;BME280;52361;52.100;5.248;2023-02-26T04:45:57;102137.0;;;1.97;72.28
39295;BME280;52361;52.100;5.248;2023-02-26T04:49:10;102136.0;;;1.88;72.58
39295;BME280;52361;52.100;5.248;2023-02-26T04:50:46;102142.0;;;1.91;73.11
39295;BME280;52361;52.100;5.248;2023-02-26T04:52:23;102144.0;;;1.81;73.52
39295;BME280;52361;52.100;5.248;2023-02-26T04:55:36;102148.0;;;1.79;73.27
39295;BME280;52361;52.100;5.248;2023-02-26T04:57:13;102150.0;;;1.72;73.05
39295;BME280;52361;52.100;5.248;2023-02-26T04:58:49;102152.0;;;1.76;73.41
39295;BME280;52361;52.100;5.248;2023-02-26T05:03:40;102153.0;;;1.75;73.59
39295;BME280;52361;52.100;5.248;2023-02-26T05:05:17;102155.0;;;1.72;73.44
39295;BME280;52361;52.100;5.248;2023-02-26T05:06:54;102160.0;;;1.69;73.8
39295;BME280;52361;52.100;5.248;2023-02-26T05:10:09;102159.0;;;1.73;74.11
39295;BME280;52361;52.100;5.248;2023-02-26T05:11:47;102171.0;;;1.53;73.7
39295;BME280;52361;52.100;5.248;2023-02-26T05:13:24;102169.0;;;1.54;73.5
39295;BME280;52361;52.100;5.248;2023-02-26T05:15:01;102169.0;;;1.5;74.41
39295;BME280;52361;52.100;5.248;2023-02-26T05:18:14;102172.0;;;1.48;74.98
39295;BME280;52361;52.100;5.248;2023-02-26T05:19:50;102177.0;;;1.48;74.36
39295;BME280;52361;52.100;5.248;2023-02-26T05:24:40;102185.0;;;1.44;74.75
39295;BME280;52361;52.100;5.248;2023-02-26T05:26:17;102189.0;;;1.38;75.16
39295;BME280;52361;52.100;5.248;2023-02-26T05:27:53;102196.0;;;1.49;74.77
39295;BME280;52361;52.100;5.248;2023-02-26T05:31:06;102194.0;;;1.36;74.19
39295;BME280;52361;52.100;5.248;2023-02-26T05:32:43;102192.0;;;1.4;73.92
39295;BME280;52361;52.100;5.248;2023-02-26T05:34:20;102202.0;;;1.38;74.08
39295;BME280;52361;52.100;5.248;2023-02-26T05:35:56;102202.0;;;1.4;74.08
39295;BME280;52361;52.100;5.248;2023-02-26T05:39:08;102209.0;;;1.44;74.02
39295;BME280;52361;52.100;5.248;2023-02-26T05:40:45;102206.0;;;1.39;73.41
39295;BME280;52361;52.100;5.248;2023-02-26T05:42:21;102212.0;;;1.37;73.66
39295;BME280;52361;52.100;5.248;2023-02-26T05:45:34;102207.0;;;1.32;74.77
39295;BME280;52361;52.100;5.248;2023-02-26T05:47:11;102209.0;;;1.45;74.37
39295;BME280;52361;52.100;5.248;2023-02-26T05:48:47;102224.0;;;1.26;74.61
39295;BME280;52361;52.100;5.248;2023-02-26T05:51:59;102223.0;;;1.38;74.31
39295;BME280;52361;52.100;5.248;2023-02-26T05:53:36;102226.0;;;1.28;74.77
39295;BME280;52361;52.100;5.248;2023-02-26T05:55:13;102232.0;;;1.38;74.27
39295;BME280;52361;52.100;5.248;2023-02-26T05:58:25;102233.0;;;1.36;74.27
39295;BME280;52361;52.100;5.248;2023-02-26T06:00:02;102231.0;;;1.27;74.73
39295;BME280;52361;52.100;5.248;2023-02-26T06:01:39;102232.0;;;1.16;74.72
39295;BME280;52361;52.100;5.248;2023-02-26T06:03:16;102243.0;;;1.3;74.27
39295;BME280;52361;52.100;5.248;2023-02-26T06:06:27;102242.0;;;1.4;73.66
39295;BME280;52361;52.100;5.248;2023-02-26T06:08:05;102247.0;;;1.32;73.94
39295;BME280;52361;52.100;5.248;2023-02-26T06:09:41;102251.0;;;1.37;73.7
39295;BME280;52361;52.100;5.248;2023-02-26T06:12:54;102248.0;;;1.25;74.41
39295;BME280;52361;52.100;5.248;2023-02-26T06:14:30;102252.0;;;1.32;73.73
39295;BME280;52361;52.100;5.248;2023-02-26T06:16:06;102252.0;;;1.2;74.17
39295;BME280;52361;52.100;5.248;2023-02-26T06:19:19;102249.0;;;1.32;74.05
39295;BME280;52361;52.100;5.248;2023-02-26T06:20:55;102256.0;;;1.22;74.91
39295;BME280;52361;52.100;5.248;2023-02-26T06:22:31;102263.0;;;1.22;74.62
39295;BME280;52361;52.100;5.248;2023-02-26T06:24:08;102263.0;;;1.16;74.52
39295;BME280;52361;52.100;5.248;2023-02-26T06:27:20;102265.0;;;1.17;74.67
39295;BME280;52361;52.100;5.248;2023-02-26T06:28:56;102272.0;;;1.18;74.61
39295;BME280;52361;52.100;5.248;2023-02-26T06:30:33;102271.0;;;1.29;75.02
39295;BME280;52361;52.100;5.248;2023-02-26T06:33:46;102274.0;;;1.17;75.41
39295;BME280;52361;52.100;5.248;2023-02-26T06:35:22;102277.0;;;1.08;76.44
39295;BME280;52361;52.100;5.248;2023-02-26T06:36:58;102280.0;;;1.1;76.23
39295;BME280;52361;52.100;5.248;2023-02-26T06:40:12;102284.0;;;1.05;75.62
39295;BME280;52361;52.100;5.248;2023-02-26T06:41:48;102286.0;;;1.14;76.02
39295;BME280;52361;52.100;5.248;2023-02-26T06:43:24;102290.0;;;1.17;75.83
39295;BME280;52361;52.100;5.248;2023-02-26T06:45:00;102289.0;;;1.13;76.52
39295;BME280;52361;52.100;5.248;2023-02-26T06:48:12;102296.0;;;1.15;75.98
39295;BME280;52361;52.100;5.248;2023-02-26T06:49:49;102296.0;;;1.11;76.08
39295;BME280;52361;52.100;5.248;2023-02-26T06:51:25;102301.0;;;1.22;76.0
39295;BME280;52361;52.100;5.248;2023-02-26T06:54:38;102305.0;;;1.08;76.58
39295;BME280;52361;52.100;5.248;2023-02-26T06:56:14;102311.0;;;1.26;76.3
39295;BME280;52361;52.100;5.248;2023-02-26T06:57:50;102311.0;;;1.24;75.86
39295;BME280;52361;52.100;5.248;2023-02-26T07:01:03;102310.0;;;1.34;75.88
39295;BME280;52361;52.100;5.248;2023-02-26T07:02:40;102310.0;;;1.22;76.19
39295;BME280;52361;52.100;5.248;2023-02-26T07:04:16;102317.0;;;1.08;76.91
39295;BME280;52361;52.100;5.248;2023-02-26T07:05:53;102317.0;;;1.14;77.58
39295;BME280;52361;52.100;5.248;2023-02-26T07:09:05;102328.0;;;1.16;77.39
39295;BME280;52361;52.100;5.248;2023-02-26T07:10:42;102332.0;;;1.3;77.24
39295;BME280;52361;52.100;5.248;2023-02-26T07:12:18;102335.0;;;1.47;76.8
39295;BME280;52361;52.100;5.248;2023-02-26T07:15:31;102339.0;;;1.42;76.53
39295;BME280;52361;52.100;5.248;2023-02-26T07:17:08;102339.0;;;1.73;76.62
39295;BME280;52361;52.100;5.248;2023-02-26T07:18:44;102344.0;;;1.88;75.77
39295;BME280;52361;52.100;5.248;2023-02-26T07:21:56;102349.0;;;2.0;75.23
39295;BME280;52361;52.100;5.248;2023-02-26T07:23:33;102355.0;;;2.02;74.92
39295;BME280;52361;52.100;5.248;2023-02-26T07:25:11;102359.0;;;1.98;74.55
39295;BME280;52361;52.100;5.248;2023-02-26T07:26:47;102361.0;;;2.09;73.88
39295;BME280;52361;52.100;5.248;2023-02-26T07:30:00;102359.0;;;2.23;74.31
39295;BME280;52361;52.100;5.248;2023-02-26T07:31:37;102361.0;;;2.32;73.64
39295;BME280;52361;52.100;5.248;2023-02-26T07:33:13;102365.0;;;2.5;73.38
39295;BME280;52361;52.100;5.248;2023-02-26T07:36:26;102363.0;;;2.6;72.88
39295;BME280;52361;52.100;5.248;2023-02-26T07:38:03;102371.0;;;2.63;72.37
39295;BME280;52361;52.100;5.248;2023-02-26T07:39:39;102373.0;;;2.67;72.23
39295;BME280;52361;52.100;5.248;2023-02-26T07:42:51;102375.0;;;2.91;72.0
39295;BME280;52361;52.100;5.248;2023-02-26T07:44:27;102377.0;;;3.06;70.45
39295;BME280;52361;52.100;5.248;2023-02-26T07:46:04;102378.0;;;3.22;70.27
39295;BME280;52361;52.100;5.248;2023-02-26T07:49:16;102377.0;;;3.28;69.55
39295;BME280;52361;52.100;5.248;2023-02-26T07:50:52;102377.0;;;3.52;69.2
39295;BME280;52361;52.100;5.248;2023-02-26T07:52:29;102380.0;;;3.64;68.37
39295;BME280;52361;52.100;5.248;2023-02-26T07:54:05;102375.0;;;3.72;68.45
39295;BME280;52361;52.100;5.248;2023-02-26T07:57:18;102382.0;;;3.81;67.64
39295;BME280;52361;52.100;5.248;2023-02-26T07:58:54;102387.0;;;3.91;67.05
39295;BME280;52361;52.100;5.248;2023-02-26T08:00:30;102384.0;;;3.94;67.2
39295;BME280;52361;52.100;5.248;2023-02-26T08:03:42;102392.0;;;3.95;66.77
39295;BME280;52361;52.100;5.248;2023-02-26T08:05:19;102393.0;;;3.97;67.3
39295;BME280;52361;52.100;5.248;2023-02-26T08:06:55;102398.0;;;3.95;66.91
39295;BME280;52361;52.100;5.248;2023-02-26T08:10:10;102403.0;;;4.08;66.77
39295;BME280;52361;52.100;5.248;2023-02-26T08:11:46;102409.99999999999;;;4.21;67.02
39295;BME280;52361;52.100;5.248;2023-02-26T08:13:22;102406.0;;;4.34;66.33
39295;BME280;52361;52.100;5.248;2023-02-26T08:14:58;102413.00000000001;;;4.28;66.52
39295;BME280;52361;52.100;5.248;2023-02-26T08:18:11;102416.00000000001;;;4.46;67.12
39295;BME280;52361;52.100;5.248;2023-02-26T08:19:48;102416.00000000001;;;4.5;66.56
39295;BME280;52361;52.100;5.248;2023-02-26T08:21:24;102419.0;;;4.46;66.33
39295;BME280;52361;52.100;5.248;2023-02-26T08:24:38;102421.0;;;4.34;65.94
39295;BME280;52361;52.100;5.248;2023-02-26T08:26:14;102426.0;;;4.43;66.62
39295;BME280;52361;52.100;5.248;2023-02-26T08:27:51;102432.0;;;4.41;66.33
39295;BME280;52361;52.100;5.248;2023-02-26T08:31:03;102433.99999999999;;;4.57;66.47
39295;BME280;52361;52.100;5.248;2023-02-26T08:32:40;102439.00000000001;;;4.67;66.3
39295;BME280;52361;52.100;5.248;2023-02-26T08:34:17;102434.99999999999;;;4.75;65.69
39295;BME280;52361;52.100;5.248;2023-02-26T08:35:54;102439.00000000001;;;4.53;64.94
39295;BME280;52361;52.100;5.248;2023-02-26T08:39:07;102436.99999999999;;;4.7;65.03
39295;BME280;52361;52.100;5.248;2023-02-26T08:40:43;102442.0;;;4.87;65.23
39295;BME280;52361;52.100;5.248;2023-02-26T08:42:20;102446.0;;;5.08;64.85
39295;BME280;52361;52.100;5.248;2023-02-26T08:45:35;102454.0;;;5.16;64.55
39295;BME280;52361;52.100;5.248;2023-02-26T08:47:11;102449.0;;;5.24;63.38
39295;BME280;52361;52.100;5.248;2023-02-26T08:48:48;102452.0;;;5.22;63.04
39295;BME280;52361;52.100;5.248;2023-02-26T08:52:01;102451.0;;;5.27;62.84
39295;BME280;52361;52.100;5.248;2023-02-26T08:53:37;102455.0;;;5.12;62.07
39295;BME280;52361;52.100;5.248;2023-02-26T08:55:13;102459.99999999999;;;5.15;60.95
39295;BME280;52361;52.100;5.248;2023-02-26T08:56:49;102458.99999999999;;;5.03;59.0
39295;BME280;52361;52.100;5.248;2023-02-26T09:00:02;102470.0;;;4.99;59.59
39295;BME280;52361;52.100;5.248;2023-02-26T09:01:39;102463.00000000001;;;4.99;57.14
39295;BME280;52361;52.100;5.248;2023-02-26T09:03:15;102467.0;;;5.09;56.95
39295;BME280;52361;52.100;5.248;2023-02-26T09:06:27;102467.0;;;5.18;54.66
39295;BME280;52361;52.100;5.248;2023-02-26T09:08:04;102476.0;;;5.0;54.95
39295;BME280;52361;52.100;5.248;2023-02-26T09:09:40;102478.0;;;5.09;54.7
39295;BME280;52361;52.100;5.248;2023-02-26T09:12:53;102479.0;;;5.22;55.02
39295;BME280;52361;52.100;5.248;2023-02-26T09:14:29;102482.0;;;5.5;54.81
39295;BME280;52361;52.100;5.248;2023-02-26T09:16:06;102489.00000000001;;;5.58;53.52
39295;BME280;52361;52.100;5.248;2023-02-26T09:20:55;102488.00000000001;;;5.61;52.32
39295;BME280;52361;52.100;5.248;2023-02-26T09:22:31;102492.0;;;5.76;52.37
39295;BME280;52361;52.100;5.248;2023-02-26T09:24:08;102498.0;;;5.67;52.34
39295;BME280;52361;52.100;5.248;2023-02-26T09:27:20;102497.0;;;5.64;53.03
39295;BME280;52361;52.100;5.248;2023-02-26T09:28:57;102493.0;;;6.15;52.23
39295;BME280;52361;52.100;5.248;2023-02-26T09:30:33;102492.0;;;6.26;50.75
39295;BME280;52361;52.100;5.248;2023-02-26T09:33:48;102502.0;;;6.21;51.31
39295;BME280;52361;52.100;5.248;2023-02-26T09:35:24;102495.0;;;6.24;51.49
39295;BME280;52361;52.100;5.248;2023-02-26T09:37:01;102496.0;;;6.25;51.41
39295;BME280;52361;52.100;5.248;2023-02-26T09:38:38;102493.0;;;6.21;51.82
39295;BME280;52361;52.100;5.248;2023-02-26T09:42:27;102498.0;;;6.23;50.99
39295;BME280;52361;52.100;5.248;2023-02-26T09:44:19;102498.0;;;6.74;50.61
39295;BME280;52361;52.100;5.248;2023-02-26T09:45:59;102506.0;;;6.64;50.21
39295;BME280;52361;52.100;5.248;2023-02-26T09:47:43;102504.0;;;6.61;50.86
39295;BME280;52361;52.100;5.248;2023-02-26T09:49:30;102509.99999999999;;;6.85;50.11
39295;BME280;52361;52.100;5.248;2023-02-26T09:54:43;102513.00000000001;;;7.25;49.5
39295;BME280;52361;52.100;5.248;2023-02-26T09:56:23;102514.00000000001;;;7.04;49.22
39295;BME280;52361;52.100;5.248;2023-02-26T09:58:03;102514.00000000001;;;7.32;48.72
39295;BME280;52361;52.100;5.248;2023-02-26T09:59:40;102520.0;;;7.36;47.68
39295;BME280;52361;52.100;5.248;2023-02-26T10:03:17;102517.0;;;7.61;48.24
39295;BME280;52361;52.100;5.248;2023-02-26T10:05:03;102525.0;;;7.34;47.11
39295;BME280;52361;52.100;5.248;2023-02-26T10:07:01;102528.0;;;7.77;47.58
39295;BME280;52361;52.100;5.248;2023-02-26T10:08:59;102531.0;;;7.66;46.98
39295;BME280;52361;52.100;5.248;2023-02-26T10:10:55;102534.99999999999;;;7.95;47.16
39295;BME280;52361;52.100;5.248;2023-02-26T10:12:39;102531.0;;;8.1;45.93
39295;BME280;52361;52.100;5.248;2023-02-26T10:14:22;102532.0;;;8.38;45.5
39295;BME280;52361;52.100;5.248;2023-02-26T10:17:51;102536.99999999999;;;8.51;45.64
39295;BME280;52361;52.100;5.248;2023-02-26T10:19:51;102542.0;;;8.41;45.36
39295;BME280;52361;52.100;5.248;2023-02-26T10:21:32;102540.00000000001;;;8.22;45.03
39295;BME280;52361;52.100;5.248;2023-02-26T10:23:18;102539.00000000001;;;8.25;45.87
39295;BME280;52361;52.100;5.248;2023-02-26T10:25:03;102547.0;;;8.31;45.43
39295;BME280;52361;52.100;5.248;2023-02-26T10:26:44;102544.0;;;8.23;45.68
39295;BME280;52361;52.100;5.248;2023-02-26T10:30:28;102543.0;;;7.88;46.34
39295;BME280;52361;52.100;5.248;2023-02-26T10:32:19;102549.0;;;7.85;46.33
39295;BME280;52361;52.100;5.248;2023-02-26T10:34:09;102549.0;;;7.47;46.5
39295;BME280;52361;52.100;5.248;2023-02-26T10:35:53;102548.0;;;7.75;47.31
39295;BME280;52361;52.100;5.248;2023-02-26T10:37:48;102551.0;;;8.2;47.11
39295;BME280;52361;52.100;5.248;2023-02-26T10:42:53;102538.00000000001;;;8.19;45.53
39295;BME280;52361;52.100;5.248;2023-02-26T10:44:36;102551.0;;;8.65;47.44
39295;BME280;52361;52.100;5.248;2023-02-26T10:46:25;102551.0;;;8.59;46.55
39295;BME280;52361;52.100;5.248;2023-02-26T10:48:17;102551.0;;;8.64;45.83
39295;BME280;52361;52.100;5.248;2023-02-26T10:50:03;102552.0;;;8.57;45.79
39295;BME280;52361;52.100;5.248;2023-02-26T10:53:19;102547.0;;;8.73;46.14
39295;BME280;52361;52.100;5.248;2023-02-26T10:55:06;102553.0;;;8.83;46.48
39295;BME280;52361;52.100;5.248;2023-02-26T10:58:54;102542.0;;;9.02;44.88
39295;BME280;52361;52.100;5.248;2023-02-26T11:00:33;102549.0;;;8.98;45.22
39295;BME280;52361;52.100;5.248;2023-02-26T11:04:14;102552.0;;;8.97;44.33
39295;BME280;52361;52.100;5.248;2023-02-26T11:05:52;102553.0;;;8.94;44.65
39295;BME280;52361;52.100;5.248;2023-02-26T11:07:30;102559.99999999999;;;8.59;45.72
39295;BME280;52361;52.100;5.248;2023-02-26T11:09:18;102552.0;;;8.72;45.05
39295;BME280;52361;52.100;5.248;2023-02-26T11:10:58;102561.99999999999;;;8.75;46.18
39295;BME280;52361;52.100;5.248;2023-02-26T11:14:13;102561.99999999999;;;8.59;45.47
39295;BME280;52361;52.100;5.248;2023-02-26T11:15:52;102567.0;;;8.47;46.75
39295;BME280;52361;52.100;5.248;2023-02-26T11:17:32;102569.0;;;8.51;47.4
39295;BME280;52361;52.100;5.248;2023-02-26T11:19:10;102572.0;;;8.68;45.87
39295;BME280;52361;52.100;5.248;2023-02-26T11:22:33;102579.0;;;8.24;45.4
39295;BME280;52361;52.100;5.248;2023-02-26T11:24:12;102574.0;;;8.09;46.33
39295;BME280;52361;52.100;5.248;2023-02-26T11:25:53;102570.0;;;7.72;46.84
39295;BME280;52361;52.100;5.248;2023-02-26T11:27:35;102576.0;;;7.57;46.98
39295;BME280;52361;52.100;5.248;2023-02-26T11:30:53;102573.0;;;7.58;47.23
39295;BME280;52361;52.100;5.248;2023-02-26T11:32:31;102573.0;;;7.75;47.68
39295;BME280;52361;52.100;5.248;2023-02-26T11:34:10;102574.0;;;7.64;47.84